Terminal Aerodrome Forecast
Issued by NWS Sterling, VA

Home | Current Version | Previous Version | Text Only | Print | Product List | Glossary On
Versions: 1 2 3 4 5 6 7 8 9 10 11 12 13 14 15
000
FTUS41 KLWX 241700
TAFMRB
TAF
KMRB 241736Z 2418/2518 20015G25KT P6SM FEW250
     FM242200 23013KT P6SM BKN070
     FM250200 23008KT P6SM SCT060
     FM250500 27008KT P6SM SCT250=

USA.gov is the U.S. government's official web portal to all federal, state and local government web resources and services.